Terminal Aerodrome Forecast
Issued by NWS

Home | Current Version | Previous Version | Graphics & Text | Print | Product List | Glossary On
Versions: 1 2 3 4 5 6 7 8 9 10 11 12
000
FTUS43 KMPX 172330
TAFRWF
TAF
KRWF 172330Z 1800/1824 23006KT P6SM SKC
     FM180800 19007KT P6SM FEW250 WS020/22035KT
     FM181400 21009KT P6SM FEW250
     FM181600 24011G18KT P6SM FEW250
     FM181800 28012G19KT P6SM FEW250=

USA.gov is the U.S. government's official web portal to all federal, state and local government web resources and services.